createdAt,value
2019-04-14T00:02:05.304Z,6.10
2019-04-14T00:04:37.861Z,6.00
2019-04-14T00:07:08.003Z,6.10
2019-04-14T00:09:38.058Z,6.00
2019-04-14T00:12:10.492Z,6.00
2019-04-14T00:14:40.637Z,6.00
2019-04-14T00:17:11.350Z,5.90
2019-04-14T00:19:41.329Z,6.00
2019-04-14T00:22:11.692Z,6.00
2019-04-14T00:24:42.444Z,6.00
2019-04-14T00:27:12.845Z,6.00
2019-04-14T00:29:43.627Z,6.00
2019-04-14T00:32:14.116Z,6.00
2019-04-14T00:34:57.536Z,6.00
2019-04-14T00:37:31.636Z,6.00
2019-04-14T00:40:10.402Z,6.00
2019-04-14T00:42:54.394Z,5.90
2019-04-14T00:45:38.275Z,5.90
2019-04-14T00:48:09.289Z,5.90
2019-04-14T00:50:34.082Z,5.90
2019-04-14T00:53:03.958Z,5.90
2019-04-14T00:55:33.723Z,5.90
2019-04-14T00:58:03.852Z,5.90
2019-04-14T01:00:34.138Z,6.00
2019-04-14T01:03:04.801Z,5.90
2019-04-14T01:05:35.961Z,5.90
2019-04-14T01:08:07.270Z,5.90
2019-04-14T01:10:37.109Z,5.90
2019-04-14T01:13:09.576Z,5.90
2019-04-14T01:15:49.218Z,5.90
2019-04-14T01:18:10.041Z,5.90
2019-04-14T01:20:40.630Z,5.90
2019-04-14T01:23:10.593Z,5.90
2019-04-14T01:25:41.044Z,5.90
2019-04-14T01:28:11.313Z,5.90
2019-04-14T01:30:41.559Z,5.80
2019-04-14T01:33:11.917Z,5.80
2019-04-14T01:35:42.151Z,5.80
2019-04-14T01:38:12.545Z,5.80
2019-04-14T01:40:44.521Z,5.80
2019-04-14T01:43:14.636Z,5.80
2019-04-14T01:45:46.162Z,5.80
2019-04-14T01:48:15.704Z,5.80
2019-04-14T01:51:05.406Z,5.80
2019-04-14T01:53:40.065Z,5.80
2019-04-14T01:56:29.813Z,5.70
2019-04-14T01:59:02.132Z,5.70
2019-04-14T02:01:42.411Z,5.70
2019-04-14T02:04:12.142Z,5.70
2019-04-14T02:06:41.973Z,5.70
2019-04-14T02:09:12.105Z,5.70
2019-04-14T02:11:51.552Z,5.70
2019-04-14T02:14:21.261Z,5.60
2019-04-14T02:16:56.115Z,5.60
2019-04-14T02:19:22.378Z,5.60
2019-04-14T02:21:52.133Z,5.60
2019-04-14T02:24:22.248Z,5.60
2019-04-14T02:26:52.643Z,5.60
2019-04-14T02:29:23.335Z,5.60
2019-04-14T02:32:33.068Z,5.60
2019-04-14T02:37:26.358Z,5.60
2019-04-14T02:39:56.044Z,5.50
2019-04-14T02:45:17.263Z,5.50
2019-04-14T02:47:55.028Z,5.50
2019-04-14T02:52:47.258Z,5.50
2019-04-14T02:55:10.829Z,5.50
2019-04-14T02:57:47.638Z,5.50
2019-04-14T03:00:23.940Z,5.50
2019-04-14T03:02:44.146Z,5.50
2019-04-14T03:05:16.368Z,5.50
2019-04-14T03:07:54.452Z,5.40
2019-04-14T03:12:57.925Z,5.40
2019-04-14T03:15:27.959Z,5.40
2019-04-14T03:20:39.556Z,5.30
2019-04-14T03:23:26.256Z,5.30
2019-04-14T03:25:49.822Z,5.30
2019-04-14T03:28:36.535Z,5.30
2019-04-14T03:31:33.242Z,5.30
2019-04-14T03:34:08.193Z,5.20
2019-04-14T03:38:34.445Z,5.20
2019-04-14T03:41:16.491Z,5.10
2019-04-14T03:46:21.367Z,5.10
2019-04-14T03:51:18.949Z,5.00
2019-04-14T03:54:36.348Z,5.10
2019-04-14T03:56:49.138Z,5.10
2019-04-14T03:59:19.610Z,5.00
2019-04-14T04:01:50.080Z,5.00
2019-04-14T04:04:20.568Z,5.00
2019-04-14T04:06:59.666Z,4.90
2019-04-14T04:09:32.100Z,5.00
2019-04-14T04:12:03.031Z,5.00
2019-04-14T04:14:36.167Z,5.00
2019-04-14T04:17:07.955Z,5.00
2019-04-14T04:19:42.615Z,5.00
2019-04-14T04:22:32.579Z,5.00
2019-04-14T04:25:22.607Z,5.00
2019-04-14T04:27:59.768Z,5.00
2019-04-14T04:30:43.046Z,5.10
2019-04-14T04:33:20.458Z,5.10
2019-04-14T04:35:58.610Z,5.20
2019-04-14T04:38:33.961Z,5.20
2019-04-14T04:41:03.802Z,5.20
2019-04-14T04:43:34.531Z,5.30
2019-04-14T04:46:04.841Z,5.30
2019-04-14T04:48:34.924Z,5.40
2019-04-14T04:51:07.093Z,5.40
2019-04-14T04:53:37.830Z,5.40
2019-04-14T04:56:08.004Z,5.40
2019-04-14T04:58:37.834Z,5.50
2019-04-14T05:01:09.931Z,5.50
2019-04-14T05:03:40.705Z,5.50
2019-04-14T05:06:31.022Z,5.60
2019-04-14T05:09:18.928Z,5.60
2019-04-14T05:12:06.756Z,5.70
2019-04-14T05:14:54.537Z,5.70
2019-04-14T05:17:25.794Z,5.70
2019-04-14T05:19:56.240Z,5.70
2019-04-14T05:22:26.764Z,5.70
2019-04-14T05:24:57.206Z,5.70
2019-04-14T05:27:27.612Z,5.80
2019-04-14T05:29:58.036Z,5.80
2019-04-14T05:32:28.370Z,5.80
2019-04-14T05:34:58.703Z,5.80
2019-04-14T05:37:29.021Z,5.80
2019-04-14T05:39:59.371Z,5.90
2019-04-14T05:42:34.084Z,5.90
2019-04-14T05:45:04.816Z,5.90
2019-04-14T05:47:35.002Z,6.00
2019-04-14T05:50:07.352Z,6.00
2019-04-14T05:52:38.261Z,6.10
2019-04-14T05:55:08.885Z,6.10
2019-04-14T05:57:39.484Z,6.20
2019-04-14T06:00:12.364Z,6.20
2019-04-14T06:02:42.279Z,6.20
2019-04-14T06:05:13.036Z,6.30
2019-04-14T06:07:43.146Z,6.40
2019-04-14T06:10:12.854Z,6.50
2019-04-14T06:12:42.578Z,6.60
2019-04-14T06:15:12.330Z,6.60
2019-04-14T06:17:42.039Z,6.70
2019-04-14T06:20:12.109Z,6.80
2019-04-14T06:22:41.926Z,6.90
2019-04-14T06:25:11.648Z,7.00
2019-04-14T06:27:41.370Z,7.00
2019-04-14T06:30:18.698Z,7.00
2019-04-14T06:32:49.416Z,7.10
2019-04-14T06:35:24.038Z,7.20
2019-04-14T06:38:01.265Z,7.30
2019-04-14T06:40:32.583Z,7.30
2019-04-14T06:43:02.310Z,7.40
2019-04-14T06:45:32.071Z,7.60
2019-04-14T06:48:01.779Z,7.60
2019-04-14T06:50:31.487Z,7.60
2019-04-14T06:53:01.266Z,7.70
2019-04-14T06:55:30.980Z,7.70
2019-04-14T06:58:00.705Z,7.90
2019-04-14T07:00:30.429Z,7.90
2019-04-14T07:03:00.147Z,8.00
2019-04-14T07:05:29.898Z,8.10
2019-04-14T07:07:59.613Z,8.20
2019-04-14T07:10:29.342Z,8.20
2019-04-14T07:12:59.069Z,8.30
2019-04-14T07:15:28.821Z,8.50
2019-04-14T07:17:58.553Z,8.60
2019-04-14T07:20:28.280Z,8.80
2019-04-14T07:22:57.995Z,9.00
2019-04-14T07:25:27.714Z,9.30
2019-04-14T07:27:58.443Z,9.60
2019-04-14T07:30:35.906Z,9.70
2019-04-14T07:33:07.224Z,9.80
2019-04-14T07:35:38.551Z,10.00
2019-04-14T07:38:18.878Z,10.20
2019-04-14T07:41:05.457Z,10.30
2019-04-14T07:43:36.740Z,10.40
2019-04-14T07:46:14.195Z,10.50
2019-04-14T07:48:48.530Z,10.60
2019-04-14T07:51:28.806Z,10.70
2019-04-14T07:54:00.118Z,10.70
2019-04-14T07:56:34.491Z,10.80
2019-04-14T07:59:05.884Z,11.00
2019-04-14T08:01:37.227Z,11.20
2019-04-14T08:04:11.637Z,11.40
2019-04-14T08:06:42.960Z,11.50
2019-04-14T08:09:12.675Z,11.70
2019-04-14T08:11:42.322Z,11.80
2019-04-14T08:14:12.042Z,11.90
2019-04-14T08:16:41.806Z,12.10
2019-04-14T08:19:11.535Z,12.20
2019-04-14T08:21:41.263Z,12.30
2019-04-14T08:24:10.989Z,12.40
2019-04-14T08:26:40.735Z,12.50
2019-04-14T08:29:10.399Z,12.60
2019-04-14T08:31:40.379Z,12.60
2019-04-14T08:34:10.072Z,12.60
2019-04-14T08:36:39.784Z,12.70
2019-04-14T08:39:09.619Z,12.80
2019-04-14T08:41:41.936Z,12.90
2019-04-14T08:44:13.266Z,13.00
2019-04-14T08:46:47.281Z,13.10
2019-04-14T08:49:18.626Z,13.20
2019-04-14T08:51:58.986Z,13.20
2019-04-14T08:54:42.579Z,13.30
2019-04-14T08:57:13.892Z,13.30
2019-04-14T08:59:45.222Z,13.40
2019-04-14T09:02:16.563Z,13.40
2019-04-14T09:04:48.923Z,13.50
2019-04-14T09:07:32.426Z,13.40
2019-04-14T09:10:06.574Z,13.30
2019-04-14T09:12:37.872Z,13.30
2019-04-14T09:15:08.026Z,13.40
2019-04-14T09:17:37.767Z,13.50
2019-04-14T09:20:07.592Z,13.70
2019-04-14T09:22:37.319Z,13.90
2019-04-14T09:25:07.038Z,14.10
2019-04-14T09:27:36.839Z,14.30
2019-04-14T09:30:08.453Z,14.40
2019-04-14T09:32:38.138Z,14.50
2019-04-14T09:35:08.259Z,14.70
2019-04-14T09:37:38.043Z,14.70
2019-04-14T09:40:07.958Z,14.70
2019-04-14T09:42:37.954Z,14.70
2019-04-14T09:45:08.074Z,14.80
2019-04-14T09:47:37.800Z,15.00
2019-04-14T09:50:07.660Z,15.10
2019-04-14T09:52:37.378Z,15.10
2019-04-14T09:55:07.347Z,15.20
2019-04-14T09:57:37.200Z,15.20
2019-04-14T10:00:07.463Z,15.30
2019-04-14T10:02:38.300Z,15.20
2019-04-14T10:05:08.159Z,15.20
2019-04-14T10:07:37.893Z,15.10
2019-04-14T10:10:07.874Z,15.20
2019-04-14T10:12:37.594Z,15.30
2019-04-14T10:15:07.419Z,15.40
2019-04-14T10:17:37.135Z,15.30
2019-04-14T10:20:06.953Z,15.30
2019-04-14T10:22:36.702Z,15.40
2019-04-14T10:25:06.516Z,15.40
2019-04-14T10:27:36.575Z,15.60
2019-04-14T10:30:08.028Z,15.60
2019-04-14T10:32:37.781Z,15.70
2019-04-14T10:35:08.912Z,15.70
2019-04-14T10:37:38.651Z,15.70
2019-04-14T10:40:08.576Z,15.70
2019-04-14T10:42:39.379Z,15.80
2019-04-14T10:45:09.603Z,15.80
2019-04-14T10:47:39.451Z,15.70
2019-04-14T10:50:09.387Z,15.60
2019-04-14T10:52:39.154Z,15.40
2019-04-14T10:55:08.987Z,15.40
2019-04-14T10:57:38.732Z,15.30
2019-04-14T11:00:11.330Z,15.20
2019-04-14T11:02:41.197Z,15.10
2019-04-14T11:05:11.004Z,15.20
2019-04-14T11:07:40.867Z,15.20
2019-04-14T11:10:11.286Z,15.20
2019-04-14T11:12:41.248Z,15.30
2019-04-14T11:15:11.173Z,15.40
2019-04-14T11:17:40.936Z,15.50
2019-04-14T11:20:11.158Z,15.80
2019-04-14T11:22:41.171Z,16.00
2019-04-14T11:25:10.891Z,16.20
2019-04-14T11:27:40.631Z,16.40
2019-04-14T11:30:13.398Z,16.50
2019-04-14T11:32:44.727Z,16.50
2019-04-14T11:35:32.510Z,16.50
2019-04-14T11:38:06.832Z,16.50
2019-04-14T11:40:44.116Z,16.50
2019-04-14T11:43:13.862Z,16.70
2019-04-14T11:45:43.597Z,16.80
2019-04-14T11:48:13.332Z,16.90
2019-04-14T11:50:43.066Z,17.00
2019-04-14T11:53:12.798Z,17.20
2019-04-14T11:55:43.523Z,17.20
2019-04-14T11:58:14.204Z,17.30
2019-04-14T12:00:45.510Z,17.40
2019-04-14T12:03:16.844Z,17.40
2019-04-14T12:05:51.295Z,17.50
2019-04-14T12:08:40.718Z,17.50
2019-04-14T12:11:10.441Z,17.60
2019-04-14T12:13:40.187Z,17.50
2019-04-14T12:16:09.909Z,17.50
2019-04-14T12:18:39.640Z,17.50
2019-04-14T12:21:09.361Z,17.60
2019-04-14T12:23:39.115Z,17.70
2019-04-14T12:26:08.834Z,17.80
2019-04-14T12:28:38.575Z,17.90
2019-04-14T12:31:08.761Z,17.90
2019-04-14T12:33:38.416Z,17.90
2019-04-14T12:36:11.187Z,17.80
2019-04-14T12:38:41.935Z,17.80
2019-04-14T12:41:13.580Z,17.90
2019-04-14T12:44:01.073Z,17.80
2019-04-14T12:46:38.179Z,17.90
2019-04-14T12:49:12.187Z,17.80
2019-04-14T12:51:56.753Z,17.80
2019-04-14T12:54:27.429Z,17.90
2019-04-14T12:56:57.153Z,18.00
2019-04-14T12:59:27.138Z,18.10
2019-04-14T13:01:58.752Z,18.20
2019-04-14T13:04:28.508Z,18.20
2019-04-14T13:06:58.227Z,18.20
2019-04-14T13:09:28.000Z,18.30
2019-04-14T13:11:57.726Z,18.40
2019-04-14T13:14:27.455Z,18.50
2019-04-14T13:16:57.174Z,18.60
2019-04-14T13:19:27.995Z,18.60
2019-04-14T13:21:57.758Z,18.60
2019-04-14T13:24:27.483Z,18.50
2019-04-14T13:26:57.242Z,18.50
2019-04-14T13:29:26.966Z,18.50
2019-04-14T13:31:56.697Z,18.50
2019-04-14T13:34:26.427Z,18.50
2019-04-14T13:36:56.134Z,18.60
2019-04-14T13:39:25.826Z,18.60
2019-04-14T13:41:55.531Z,18.50
2019-04-14T13:44:25.259Z,18.40
2019-04-14T13:46:54.978Z,18.30
2019-04-14T13:49:24.694Z,18.30
2019-04-14T13:51:54.447Z,18.40
2019-04-14T13:54:24.098Z,18.40
2019-04-14T13:56:53.754Z,18.60
2019-04-14T13:59:23.471Z,18.60
2019-04-14T14:01:53.189Z,18.60
2019-04-14T14:04:23.027Z,18.60
2019-04-14T14:06:52.745Z,18.50
2019-04-14T14:09:22.515Z,18.50
2019-04-14T14:11:59.871Z,18.30
2019-04-14T14:14:47.443Z,18.20
2019-04-14T14:17:35.500Z,18.20
2019-04-14T14:20:17.334Z,18.20
2019-04-14T14:22:58.692Z,18.20
2019-04-14T14:25:37.590Z,18.10
2019-04-14T14:28:07.232Z,17.90
2019-04-14T14:30:36.978Z,17.90
2019-04-14T14:33:06.700Z,18.00
2019-04-14T14:35:36.415Z,18.00
2019-04-14T14:38:06.135Z,17.80
2019-04-14T14:40:35.907Z,17.70
2019-04-14T14:43:05.639Z,17.70
2019-04-14T14:45:45.940Z,17.80
2019-04-14T14:48:17.235Z,17.90
2019-04-14T14:51:00.780Z,18.10
2019-04-14T14:53:30.507Z,18.30
2019-04-14T14:56:00.154Z,18.50
2019-04-14T14:58:29.878Z,18.60
2019-04-14T15:00:59.604Z,18.70
2019-04-14T15:03:29.347Z,18.90
2019-04-14T15:05:59.077Z,19.00
2019-04-14T15:08:28.853Z,18.90
2019-04-14T15:10:58.567Z,18.70
2019-04-14T15:13:28.225Z,18.50
2019-04-14T15:15:57.934Z,18.50
2019-04-14T15:18:27.575Z,18.40
2019-04-14T15:20:57.612Z,18.40
2019-04-14T15:23:27.335Z,18.30
2019-04-14T15:25:57.099Z,18.20
2019-04-14T15:28:26.823Z,17.90
2019-04-14T15:30:56.546Z,17.60
2019-04-14T15:33:26.264Z,17.50
2019-04-14T15:35:56.178Z,17.30
2019-04-14T15:38:25.927Z,17.10
2019-04-14T15:40:55.659Z,17.10
2019-04-14T15:43:26.439Z,17.10
2019-04-14T15:45:56.150Z,17.00
2019-04-14T15:48:25.910Z,16.90
2019-04-14T15:50:55.622Z,16.90
2019-04-14T15:53:37.401Z,17.00
2019-04-14T15:55:56.892Z,17.20
2019-04-14T15:58:30.947Z,17.40
2019-04-14T16:01:18.479Z,17.70
2019-04-14T16:03:55.648Z,18.00
2019-04-14T16:06:30.001Z,18.30
2019-04-14T16:09:01.360Z,18.50
2019-04-14T16:11:40.334Z,18.70
2019-04-14T16:14:24.006Z,18.80
2019-04-14T16:17:04.035Z,18.80
2019-04-14T16:19:50.682Z,18.60
2019-04-14T16:22:20.403Z,18.50
2019-04-14T16:24:50.454Z,18.20
2019-04-14T16:27:40.059Z,18.20
2019-04-14T16:30:26.908Z,18.10
2019-04-14T16:33:13.476Z,18.00
2019-04-14T16:35:44.435Z,18.00
2019-04-14T16:38:14.156Z,17.90
2019-04-14T16:40:43.907Z,17.80
2019-04-14T16:43:13.623Z,17.50
2019-04-14T16:45:43.350Z,17.40
2019-04-14T16:48:13.008Z,17.10
2019-04-14T16:50:42.741Z,16.80
2019-04-14T16:53:14.042Z,16.50
2019-04-14T16:55:48.579Z,16.20
2019-04-14T16:58:19.900Z,15.70
2019-04-14T17:00:51.186Z,15.40
2019-04-14T17:03:20.955Z,15.00
2019-04-14T17:05:50.683Z,14.80
2019-04-14T17:08:20.407Z,14.50
2019-04-14T17:10:50.170Z,14.20
2019-04-14T17:13:19.898Z,14.00
2019-04-14T17:16:07.688Z,13.70
2019-04-14T17:18:53.678Z,13.60
2019-04-14T17:21:33.896Z,13.40
2019-04-14T17:24:16.775Z,13.20
2019-04-14T17:26:56.071Z,13.10
2019-04-14T17:29:45.489Z,13.00
2019-04-14T17:32:19.246Z,12.80
2019-04-14T17:35:07.244Z,12.70
2019-04-14T17:37:47.730Z,12.60
2019-04-14T17:40:34.116Z,12.40
2019-04-14T17:43:08.315Z,12.30
2019-04-14T17:45:39.538Z,12.30
2019-04-14T17:48:13.946Z,12.20
2019-04-14T17:50:54.155Z,12.00
2019-04-14T17:53:28.643Z,11.90
2019-04-14T17:56:02.920Z,11.80
2019-04-14T17:58:36.958Z,11.70
2019-04-14T18:01:08.172Z,11.60
2019-04-14T18:03:42.218Z,11.50
2019-04-14T18:06:17.383Z,11.40
2019-04-14T18:08:49.823Z,11.40
2019-04-14T18:11:30.139Z,11.30
2019-04-14T18:14:17.853Z,11.30
2019-04-14T18:17:05.625Z,11.20
2019-04-14T18:19:48.911Z,11.10
2019-04-14T18:22:18.631Z,11.10
2019-04-14T18:24:48.352Z,11.00
2019-04-14T18:27:18.094Z,11.00
2019-04-14T18:29:49.410Z,11.00
2019-04-14T18:32:32.951Z,10.80
2019-04-14T18:35:04.272Z,10.80
2019-04-14T18:37:35.546Z,10.70
2019-04-14T18:40:16.443Z,10.70
2019-04-14T18:43:04.955Z,10.60
2019-04-14T18:45:36.294Z,10.50
2019-04-14T18:48:16.994Z,10.50
2019-04-14T18:51:04.294Z,10.50
2019-04-14T18:53:35.583Z,10.40
2019-04-14T18:56:09.642Z,10.40
2019-04-14T18:58:45.118Z,10.30
2019-04-14T19:01:16.924Z,10.30
2019-04-14T19:03:47.427Z,10.20
2019-04-14T19:06:18.178Z,10.10
2019-04-14T19:08:49.515Z,10.00
2019-04-14T19:11:36.873Z,10.00
2019-04-14T19:14:08.321Z,9.90
2019-04-14T19:16:40.246Z,9.90
2019-04-14T19:19:11.142Z,9.80
2019-04-14T19:21:41.010Z,9.70
2019-04-14T19:24:12.269Z,9.70
2019-04-14T19:26:42.108Z,9.60
2019-04-14T19:29:11.798Z,9.60
2019-04-14T19:31:41.714Z,9.50
2019-04-14T19:34:11.438Z,9.40
2019-04-14T19:36:42.190Z,9.30
2019-04-14T19:39:11.910Z,9.20
2019-04-14T19:41:41.966Z,9.20
2019-04-14T19:44:11.682Z,9.10
2019-04-14T19:46:41.363Z,9.10
2019-04-14T19:49:11.077Z,9.00
2019-04-14T19:51:40.748Z,8.90
2019-04-14T19:54:10.490Z,8.80
2019-04-14T19:56:40.308Z,8.80
2019-04-14T19:59:10.016Z,8.70
2019-04-14T20:01:39.705Z,8.60
2019-04-14T20:04:09.429Z,8.60
2019-04-14T20:06:39.920Z,8.50
2019-04-14T20:09:09.640Z,8.50
2019-04-14T20:11:39.789Z,8.40
2019-04-14T20:14:09.502Z,8.40
2019-04-14T20:16:46.650Z,8.30
2019-04-14T20:19:29.865Z,8.30
2019-04-14T20:22:03.910Z,8.30
2019-04-14T20:24:37.899Z,8.20
2019-04-14T20:27:11.642Z,8.10
2019-04-14T20:29:55.022Z,8.10
2019-04-14T20:32:36.427Z,8.10
2019-04-14T20:35:07.742Z,8.00
2019-04-14T20:37:37.486Z,8.00
2019-04-14T20:40:07.406Z,8.00
2019-04-14T20:42:37.083Z,7.90
2019-04-14T20:45:09.771Z,7.80
2019-04-14T20:47:39.416Z,7.80
2019-04-14T20:50:09.222Z,7.80
2019-04-14T20:52:38.852Z,7.70
2019-04-14T20:55:09.162Z,7.70
2019-04-14T20:57:38.938Z,7.60
2019-04-14T21:00:09.157Z,7.50
2019-04-14T21:02:41.991Z,7.40
2019-04-14T21:05:31.642Z,7.20
2019-04-14T21:08:19.044Z,7.00
2019-04-14T21:11:05.024Z,6.90
2019-04-14T21:13:39.015Z,6.70
2019-04-14T21:16:13.208Z,6.60
2019-04-14T21:18:44.578Z,6.40
2019-04-14T21:21:27.748Z,6.30
2019-04-14T21:24:04.839Z,6.20
2019-04-14T21:26:46.210Z,6.10
2019-04-14T21:29:17.491Z,6.00
2019-04-14T21:32:04.954Z,5.80
2019-04-14T21:34:54.621Z,5.80
2019-04-14T21:37:34.606Z,5.70
2019-04-14T21:40:23.037Z,5.60
2019-04-14T21:42:52.792Z,5.50
2019-04-14T21:45:22.499Z,5.40
2019-04-14T21:47:52.218Z,5.40
2019-04-14T21:50:21.942Z,5.30
2019-04-14T21:52:51.670Z,5.20
2019-04-14T21:55:21.399Z,5.20
2019-04-14T21:57:55.674Z,5.10
2019-04-14T22:01:13.641Z,5.10
2019-04-14T22:03:57.021Z,5.10
2019-04-14T22:06:28.296Z,5.00
2019-04-14T22:08:58.058Z,5.00
2019-04-14T22:11:27.979Z,5.00
2019-04-14T22:13:57.695Z,4.90
2019-04-14T22:16:28.106Z,4.90
2019-04-14T22:18:58.095Z,4.90
2019-04-14T22:21:27.799Z,4.80
2019-04-14T22:24:01.718Z,4.80
2019-04-14T22:26:28.863Z,4.80
2019-04-14T22:28:58.574Z,4.70
2019-04-14T22:31:28.338Z,4.70
2019-04-14T22:33:58.058Z,4.60
2019-04-14T22:36:27.806Z,4.60
2019-04-14T22:38:57.444Z,4.60
2019-04-14T22:41:27.174Z,4.60
2019-04-14T22:43:56.963Z,4.70
2019-04-14T22:46:26.598Z,4.80
2019-04-14T22:48:57.287Z,4.90
2019-04-14T22:51:27.004Z,5.00
2019-04-14T22:53:56.718Z,5.10
2019-04-14T22:56:38.538Z,5.20
2019-04-14T22:58:57.833Z,5.20
2019-04-14T23:01:29.115Z,5.30
2019-04-14T23:04:06.544Z,5.40
2019-04-14T23:06:54.010Z,5.40
2019-04-14T23:09:34.306Z,5.40
2019-04-14T23:12:08.114Z,5.50
2019-04-14T23:14:57.487Z,5.50
2019-04-14T23:17:28.771Z,5.30
2019-04-14T23:20:03.026Z,5.30
2019-04-14T23:22:46.295Z,5.20
2019-04-14T23:25:16.035Z,5.00
2019-04-14T23:27:45.758Z,4.90
2019-04-14T23:30:15.473Z,4.80
2019-04-14T23:32:45.203Z,4.70
2019-04-14T23:35:14.910Z,4.60
2019-04-14T23:37:44.685Z,4.50
2019-04-14T23:40:14.872Z,4.40
2019-04-14T23:42:44.629Z,4.30
2019-04-14T23:45:14.632Z,4.30
2019-04-14T23:47:44.371Z,4.20
2019-04-14T23:50:14.197Z,4.20
2019-04-14T23:52:43.962Z,4.10
2019-04-14T23:55:14.281Z,4.10
2019-04-14T23:57:43.999Z,4.10
